createdAt,value
2023-03-30T00:01:21.892Z,9.90
2023-03-30T00:03:50.488Z,9.91
2023-03-30T00:06:22.885Z,10.09
2023-03-30T00:08:57.237Z,10.03
2023-03-30T00:11:27.669Z,10.08
2023-03-30T00:13:56.012Z,10.14
2023-03-30T00:16:26.062Z,10.13
2023-03-30T00:18:54.513Z,10.07
2023-03-30T00:21:23.080Z,10.01
2023-03-30T00:23:52.444Z,10.09
2023-03-30T00:26:20.910Z,10.02
2023-03-30T00:28:49.277Z,10.12
2023-03-30T00:31:20.290Z,9.99
2023-03-30T00:33:50.265Z,10.22
2023-03-30T00:36:18.957Z,10.33
2023-03-30T00:38:49.275Z,10.36
2023-03-30T00:41:17.891Z,10.44
2023-03-30T00:43:58.579Z,10.42
2023-03-30T00:46:27.088Z,10.59
2023-03-30T00:48:59.728Z,10.45
2023-03-30T00:51:29.940Z,10.64
2023-03-30T00:54:05.782Z,10.41
2023-03-30T00:56:34.761Z,10.64
2023-03-30T00:59:04.129Z,10.40
2023-03-30T01:01:38.654Z,10.36
2023-03-30T01:04:10.988Z,10.28
2023-03-30T01:06:43.392Z,10.34
2023-03-30T01:09:12.025Z,10.01
2023-03-30T01:11:41.028Z,10.18
2023-03-30T01:14:12.534Z,10.28
2023-03-30T01:16:50.523Z,10.12
2023-03-30T01:20:13.029Z,10.18
2023-03-30T01:23:10.801Z,10.23
2023-03-30T01:26:12.561Z,10.24
2023-03-30T01:28:46.888Z,10.34
2023-03-30T01:31:42.045Z,10.40
2023-03-30T01:35:02.391Z,10.59
2023-03-30T01:38:19.003Z,10.63
2023-03-30T01:41:02.056Z,10.51
2023-03-30T01:43:38.024Z,10.63
2023-03-30T01:46:17.604Z,10.56
2023-03-30T01:48:54.756Z,10.51
2023-03-30T01:51:28.164Z,10.44
2023-03-30T01:54:03.655Z,10.32
2023-03-30T01:56:36.420Z,10.06
2023-03-30T01:59:12.613Z,10.24
2023-03-30T02:01:50.151Z,10.20
2023-03-30T02:04:23.909Z,10.06
2023-03-30T02:07:00.492Z,10.15
2023-03-30T02:09:30.893Z,10.42
2023-03-30T02:12:01.884Z,10.28
2023-03-30T02:14:34.799Z,10.39
2023-03-30T02:17:11.357Z,10.49
2023-03-30T02:19:39.866Z,10.45
2023-03-30T02:22:08.727Z,10.37
2023-03-30T02:24:38.029Z,10.45
2023-03-30T02:27:07.986Z,10.47
2023-03-30T02:29:40.188Z,10.51
2023-03-30T02:32:20.479Z,10.37
2023-03-30T02:35:11.294Z,10.23
2023-03-30T02:38:16.049Z,10.54
2023-03-30T02:40:57.957Z,10.45
2023-03-30T02:43:40.751Z,10.55
2023-03-30T02:46:25.733Z,10.44
2023-03-30T02:49:09.169Z,10.53
2023-03-30T02:51:46.863Z,10.40
2023-03-30T02:54:37.569Z,9.99
2023-03-30T02:57:38.197Z,9.96
2023-03-30T03:00:36.041Z,9.98
2023-03-30T03:03:12.947Z,9.85
2023-03-30T03:05:42.923Z,9.48
2023-03-30T03:08:16.530Z,9.61
2023-03-30T03:10:47.093Z,9.53
2023-03-30T03:13:16.943Z,9.62
2023-03-30T03:15:49.568Z,9.52
2023-03-30T03:18:18.671Z,9.37
2023-03-30T03:20:47.635Z,9.56
2023-03-30T03:23:16.056Z,9.70
2023-03-30T03:25:49.421Z,9.54
2023-03-30T03:28:20.138Z,9.68
2023-03-30T03:30:58.266Z,9.64
2023-03-30T03:33:27.476Z,9.62
2023-03-30T03:36:09.058Z,9.64
2023-03-30T03:38:42.228Z,9.58
2023-03-30T03:41:11.129Z,9.59
2023-03-30T03:43:41.636Z,9.59
2023-03-30T03:46:12.064Z,9.63
2023-03-30T03:48:41.444Z,9.48
2023-03-30T03:51:11.307Z,9.61
2023-03-30T03:53:39.732Z,9.66
2023-03-30T03:56:12.701Z,9.32
2023-03-30T03:58:41.220Z,9.52
2023-03-30T04:01:14.454Z,9.37
2023-03-30T04:03:42.994Z,9.22
2023-03-30T04:06:11.603Z,9.09
2023-03-30T04:08:40.092Z,9.17
2023-03-30T04:11:46.873Z,8.73
2023-03-30T04:14:30.909Z,8.66
2023-03-30T04:17:16.387Z,8.52
2023-03-30T04:20:04.170Z,8.38
2023-03-30T04:22:50.307Z,8.32
2023-03-30T04:25:48.103Z,8.33
2023-03-30T04:28:35.702Z,8.40
2023-03-30T04:31:35.902Z,8.38
2023-03-30T04:34:26.782Z,8.26
2023-03-30T04:37:08.475Z,8.13
2023-03-30T04:40:09.402Z,8.37
2023-03-30T04:43:02.352Z,8.44
2023-03-30T04:45:55.619Z,8.19
2023-03-30T04:48:42.504Z,8.35
2023-03-30T04:51:35.636Z,8.46
2023-03-30T04:54:12.639Z,8.45
2023-03-30T04:57:07.520Z,8.40
2023-03-30T04:59:46.280Z,8.42
2023-03-30T05:02:33.607Z,8.12
2023-03-30T05:05:20.564Z,7.99
2023-03-30T05:08:02.423Z,8.22
2023-03-30T05:10:47.726Z,8.25
2023-03-30T05:13:36.324Z,7.98
2023-03-30T05:16:20.168Z,8.05
2023-03-30T05:19:11.003Z,7.98
2023-03-30T05:21:45.755Z,8.30
2023-03-30T05:24:54.324Z,8.28
2023-03-30T05:27:37.291Z,8.24
2023-03-30T05:30:37.995Z,8.37
2023-03-30T05:33:24.888Z,8.37
2023-03-30T05:36:13.537Z,8.42
2023-03-30T05:39:01.894Z,8.13
2023-03-30T05:41:54.279Z,8.14
2023-03-30T05:44:46.951Z,8.17
2023-03-30T05:47:50.325Z,8.36
2023-03-30T05:50:37.482Z,7.99
2023-03-30T05:53:09.598Z,8.10
2023-03-30T05:56:01.244Z,8.12
2023-03-30T05:58:49.669Z,7.89
2023-03-30T06:01:41.329Z,7.77
2023-03-30T06:04:10.072Z,7.69
2023-03-30T06:06:39.178Z,7.62
2023-03-30T06:09:07.584Z,7.58
2023-03-30T06:11:37.862Z,7.38
2023-03-30T06:14:23.538Z,7.68
2023-03-30T06:17:21.127Z,7.81
2023-03-30T06:19:50.511Z,7.77
2023-03-30T06:22:18.972Z,7.63
2023-03-30T06:24:52.624Z,7.62
2023-03-30T06:27:22.296Z,7.90
2023-03-30T06:29:52.057Z,7.95
2023-03-30T06:32:20.504Z,7.71
2023-03-30T06:35:18.306Z,7.91
2023-03-30T06:37:47.168Z,7.93
2023-03-30T06:40:17.367Z,8.06
2023-03-30T06:42:49.535Z,7.75
2023-03-30T06:45:31.677Z,7.91
2023-03-30T06:48:00.405Z,8.10
2023-03-30T06:50:30.092Z,7.94
2023-03-30T06:53:07.783Z,8.62
2023-03-30T06:55:43.106Z,8.67
2023-03-30T06:58:16.824Z,9.05
2023-03-30T07:00:47.066Z,9.04
2023-03-30T07:03:34.100Z,9.17
2023-03-30T07:06:21.006Z,8.96
2023-03-30T07:08:50.443Z,9.18
2023-03-30T07:11:23.764Z,8.89
2023-03-30T07:13:55.452Z,8.91
2023-03-30T07:16:25.711Z,8.81
2023-03-30T07:18:55.057Z,8.94
2023-03-30T07:21:23.887Z,8.82
2023-03-30T07:23:52.558Z,8.96
2023-03-30T07:26:32.739Z,9.02
2023-03-30T07:29:07.436Z,8.92
2023-03-30T07:31:38.234Z,9.05
2023-03-30T07:34:09.401Z,8.96
2023-03-30T07:36:42.262Z,9.15
2023-03-30T07:39:11.204Z,9.18
2023-03-30T07:41:41.769Z,9.13
2023-03-30T07:44:10.165Z,8.72
2023-03-30T07:46:41.231Z,8.79
2023-03-30T07:49:15.315Z,9.11
2023-03-30T07:51:43.792Z,9.09
2023-03-30T07:54:25.465Z,8.99
2023-03-30T07:57:14.170Z,9.28
2023-03-30T07:59:42.690Z,9.61
2023-03-30T08:02:22.456Z,9.69
2023-03-30T08:04:53.980Z,9.84
2023-03-30T08:07:43.062Z,9.62
2023-03-30T08:10:20.763Z,9.80
2023-03-30T08:12:49.331Z,9.54
2023-03-30T08:15:17.875Z,9.51
2023-03-30T08:17:47.725Z,9.84
2023-03-30T08:20:16.124Z,9.89
2023-03-30T08:22:44.577Z,9.97
2023-03-30T08:25:13.004Z,10.01
2023-03-30T08:27:41.375Z,9.67
2023-03-30T08:30:13.150Z,10.02
2023-03-30T08:32:41.552Z,10.07
2023-03-30T08:35:13.078Z,10.04
2023-03-30T08:37:42.040Z,10.07
2023-03-30T08:40:13.816Z,10.36
2023-03-30T08:43:12.909Z,10.44
2023-03-30T08:45:44.204Z,10.53
2023-03-30T08:48:19.119Z,10.70
2023-03-30T08:50:57.438Z,10.62
2023-03-30T08:53:26.547Z,10.48
2023-03-30T08:56:02.477Z,10.24
2023-03-30T08:58:44.040Z,10.33
2023-03-30T09:01:22.040Z,10.12
2023-03-30T09:04:09.135Z,10.19
2023-03-30T09:06:49.993Z,10.51
2023-03-30T09:09:22.326Z,10.49
2023-03-30T09:11:56.628Z,10.61
2023-03-30T09:14:35.560Z,10.55
2023-03-30T09:17:13.080Z,10.59
2023-03-30T09:19:52.369Z,10.59
2023-03-30T09:22:26.214Z,10.51
2023-03-30T09:24:55.513Z,10.53
2023-03-30T09:27:36.018Z,10.63
2023-03-30T09:30:20.042Z,10.86
2023-03-30T09:33:00.914Z,11.10
2023-03-30T09:35:40.405Z,11.28
2023-03-30T09:38:14.289Z,11.28
2023-03-30T09:41:07.334Z,11.14
2023-03-30T09:43:44.038Z,11.67
2023-03-30T09:46:14.109Z,11.38
2023-03-30T09:48:44.646Z,11.29
2023-03-30T09:51:25.205Z,11.30
2023-03-30T09:54:01.688Z,11.50
2023-03-30T09:56:40.927Z,11.33
2023-03-30T09:59:23.589Z,11.26
2023-03-30T10:01:51.947Z,11.41
2023-03-30T10:04:20.806Z,11.27
2023-03-30T10:06:51.486Z,11.35
2023-03-30T10:09:25.047Z,11.56
2023-03-30T10:11:56.145Z,12.12
2023-03-30T10:14:31.663Z,12.03
2023-03-30T10:17:01.256Z,11.97
2023-03-30T10:19:30.724Z,11.80
2023-03-30T10:22:04.283Z,11.85
2023-03-30T10:24:36.795Z,12.42
2023-03-30T10:27:12.880Z,12.67
2023-03-30T10:29:48.659Z,12.47
2023-03-30T10:32:21.529Z,12.65
2023-03-30T10:34:53.422Z,12.35
2023-03-30T10:37:30.112Z,12.53
2023-03-30T10:40:02.507Z,12.49
2023-03-30T10:42:34.275Z,12.71
2023-03-30T10:45:05.688Z,12.91
2023-03-30T10:47:58.025Z,13.16
2023-03-30T10:50:36.804Z,13.34
2023-03-30T10:53:26.328Z,13.33
2023-03-30T10:56:04.608Z,13.60
2023-03-30T10:59:17.392Z,13.71
2023-03-30T11:02:01.496Z,13.44
2023-03-30T11:04:38.365Z,13.07
2023-03-30T11:07:17.790Z,13.43
2023-03-30T11:09:55.042Z,13.28
2023-03-30T11:12:31.457Z,12.92
2023-03-30T11:15:04.160Z,12.61
2023-03-30T11:17:36.326Z,12.78
2023-03-30T11:20:20.896Z,12.50
2023-03-30T11:22:54.543Z,12.79
2023-03-30T11:25:28.028Z,12.13
2023-03-30T11:28:07.040Z,12.01
2023-03-30T11:30:37.696Z,11.09
2023-03-30T11:33:20.110Z,10.69
2023-03-30T11:35:52.069Z,10.51
2023-03-30T11:38:27.556Z,10.63
2023-03-30T11:41:01.983Z,10.52
2023-03-30T11:43:32.860Z,10.55
2023-03-30T11:46:08.004Z,10.51
2023-03-30T11:49:10.603Z,10.59
2023-03-30T11:52:08.363Z,10.67
2023-03-30T11:55:07.189Z,10.81
2023-03-30T11:57:45.258Z,10.80
2023-03-30T12:00:31.126Z,11.25
2023-03-30T12:03:13.458Z,11.77
2023-03-30T12:05:47.250Z,11.69
2023-03-30T12:08:38.166Z,11.61
2023-03-30T12:11:17.497Z,11.82
2023-03-30T12:13:51.250Z,12.23
2023-03-30T12:16:30.281Z,12.52
2023-03-30T12:19:13.012Z,12.45
2023-03-30T12:21:53.024Z,12.74
2023-03-30T12:24:30.715Z,13.00
2023-03-30T12:27:06.227Z,12.78
2023-03-30T12:32:29.233Z,12.40
2023-03-30T12:34:59.448Z,12.08
2023-03-30T12:37:34.784Z,12.00
2023-03-30T12:40:10.355Z,12.15
2023-03-30T12:42:46.365Z,12.13
2023-03-30T12:45:32.297Z,12.27
2023-03-30T12:48:33.697Z,12.07
2023-03-30T12:51:16.399Z,11.87
2023-03-30T12:54:17.577Z,12.03
2023-03-30T12:56:58.273Z,12.11
2023-03-30T12:59:53.334Z,11.78
2023-03-30T13:02:44.787Z,11.59
2023-03-30T13:05:24.922Z,11.46
2023-03-30T13:07:56.327Z,11.46
2023-03-30T13:10:42.137Z,10.49
2023-03-30T13:13:24.063Z,10.28
2023-03-30T13:15:57.159Z,10.20
2023-03-30T13:18:52.691Z,10.08
2023-03-30T13:21:25.973Z,9.95
2023-03-30T13:24:36.955Z,10.09
2023-03-30T13:27:29.689Z,9.95
2023-03-30T13:30:01.029Z,10.03
2023-03-30T13:32:54.011Z,10.15
2023-03-30T13:35:38.978Z,10.72
2023-03-30T13:38:50.682Z,11.31
2023-03-30T13:41:38.457Z,11.68
2023-03-30T13:44:29.548Z,11.86
2023-03-30T13:47:10.907Z,11.37
2023-03-30T13:49:52.813Z,11.74
2023-03-30T13:52:38.371Z,11.76
2023-03-30T13:55:19.004Z,11.73
2023-03-30T13:57:47.419Z,11.81
2023-03-30T14:00:39.665Z,11.64
2023-03-30T14:03:39.890Z,11.91
2023-03-30T14:06:17.557Z,12.05
2023-03-30T14:08:49.078Z,12.58
2023-03-30T14:11:22.105Z,12.83
2023-03-30T14:13:53.397Z,12.93
2023-03-30T14:16:24.278Z,13.18
2023-03-30T14:18:53.224Z,12.69
2023-03-30T14:21:24.316Z,12.70
2023-03-30T14:23:55.256Z,12.59
2023-03-30T14:26:28.858Z,12.44
2023-03-30T14:28:58.801Z,12.32
2023-03-30T14:31:28.013Z,11.85
2023-03-30T14:33:56.739Z,11.56
2023-03-30T14:36:25.568Z,11.87
2023-03-30T14:38:57.528Z,12.18
2023-03-30T14:41:29.416Z,12.38
2023-03-30T14:44:01.315Z,12.52
2023-03-30T14:46:41.258Z,13.05
2023-03-30T14:49:15.999Z,13.12
2023-03-30T14:51:48.426Z,12.93
2023-03-30T14:54:19.780Z,13.03
2023-03-30T14:56:57.704Z,12.94
2023-03-30T14:59:27.912Z,13.12
2023-03-30T15:01:57.405Z,13.05
2023-03-30T15:04:33.007Z,12.81
2023-03-30T15:07:01.459Z,12.72
2023-03-30T15:09:37.929Z,12.50
2023-03-30T15:12:09.004Z,12.59
2023-03-30T15:14:40.549Z,12.67
2023-03-30T15:17:12.795Z,12.46
2023-03-30T15:19:41.860Z,12.60
2023-03-30T15:22:20.807Z,12.77
2023-03-30T15:24:49.334Z,12.31
2023-03-30T15:27:19.470Z,12.72
2023-03-30T15:29:48.288Z,13.03
2023-03-30T15:32:20.061Z,12.97
2023-03-30T15:35:21.143Z,12.70
2023-03-30T15:37:56.790Z,12.76
2023-03-30T15:40:36.175Z,12.74
2023-03-30T15:43:21.249Z,12.75
2023-03-30T15:45:53.349Z,12.45
2023-03-30T15:48:26.954Z,12.39
2023-03-30T15:51:03.635Z,12.33
2023-03-30T15:53:40.933Z,12.46
2023-03-30T15:56:18.773Z,12.40
2023-03-30T15:58:50.000Z,12.32
2023-03-30T16:01:18.871Z,12.44
2023-03-30T16:03:56.320Z,12.15
2023-03-30T16:06:25.405Z,12.05
2023-03-30T16:08:53.854Z,12.15
2023-03-30T16:11:23.828Z,12.31
2023-03-30T16:13:55.002Z,12.17
2023-03-30T16:16:23.441Z,12.24
2023-03-30T16:18:52.207Z,12.47
2023-03-30T16:21:24.422Z,12.30
2023-03-30T16:23:53.046Z,12.29
2023-03-30T16:26:21.781Z,12.40
2023-03-30T16:28:55.009Z,12.15
2023-03-30T16:31:24.863Z,12.10
2023-03-30T16:33:53.522Z,12.04
2023-03-30T16:36:24.112Z,11.97
2023-03-30T16:38:52.554Z,11.91
2023-03-30T16:41:23.502Z,11.85
2023-03-30T16:43:53.248Z,11.77
2023-03-30T16:46:22.191Z,11.79
2023-03-30T16:48:50.866Z,11.63
2023-03-30T16:51:20.109Z,11.33
2023-03-30T16:53:48.802Z,11.02
2023-03-30T16:56:19.315Z,11.09
2023-03-30T16:58:49.559Z,11.06
2023-03-30T17:01:19.586Z,11.40
2023-03-30T17:03:48.249Z,11.34
2023-03-30T17:06:17.184Z,11.23
2023-03-30T17:08:46.343Z,11.28
2023-03-30T17:11:15.234Z,11.36
2023-03-30T17:13:46.159Z,11.12
2023-03-30T17:16:16.519Z,10.73
2023-03-30T17:18:46.446Z,10.80
2023-03-30T17:21:17.209Z,10.70
2023-03-30T17:23:47.865Z,10.39
2023-03-30T17:26:17.177Z,10.20
2023-03-30T17:28:46.519Z,10.14
2023-03-30T17:31:18.008Z,10.16
2023-03-30T17:33:48.810Z,10.09
2023-03-30T17:36:19.986Z,10.17
2023-03-30T17:38:48.968Z,10.04
2023-03-30T17:41:19.534Z,10.11
2023-03-30T17:43:49.083Z,9.95
2023-03-30T17:46:20.700Z,10.01
2023-03-30T17:48:51.268Z,10.03
2023-03-30T17:51:19.676Z,10.05
2023-03-30T17:53:48.038Z,9.91
2023-03-30T17:56:16.414Z,9.91
2023-03-30T17:58:44.858Z,9.74
2023-03-30T18:01:13.840Z,9.74
2023-03-30T18:03:42.826Z,9.65
2023-03-30T18:06:13.899Z,9.37
2023-03-30T18:08:43.058Z,9.50
2023-03-30T18:11:11.703Z,9.49
2023-03-30T18:13:40.046Z,9.68
2023-03-30T18:16:08.707Z,9.81
2023-03-30T18:18:37.248Z,9.73
2023-03-30T18:21:06.818Z,9.39
2023-03-30T18:23:37.309Z,9.64
2023-03-30T18:26:11.109Z,9.58
2023-03-30T18:28:43.779Z,9.57
2023-03-30T18:31:12.762Z,9.65
2023-03-30T18:33:41.395Z,9.57
2023-03-30T18:36:13.273Z,9.37
2023-03-30T18:38:44.104Z,9.50
2023-03-30T18:41:13.877Z,9.57
2023-03-30T18:43:42.219Z,9.35
2023-03-30T18:46:13.800Z,9.38
2023-03-30T18:48:42.416Z,9.13
2023-03-30T18:51:12.511Z,9.06
2023-03-30T18:53:42.226Z,9.04
2023-03-30T18:56:13.755Z,8.78
2023-03-30T18:58:43.028Z,8.95
2023-03-30T19:01:13.324Z,8.88
2023-03-30T19:03:42.360Z,8.92
2023-03-30T19:06:14.016Z,9.05
2023-03-30T19:08:44.121Z,9.05
2023-03-30T19:11:17.331Z,8.98
2023-03-30T19:13:47.124Z,8.89
2023-03-30T19:16:16.956Z,8.88
2023-03-30T19:18:45.750Z,8.73
2023-03-30T19:21:17.073Z,8.75
2023-03-30T19:23:46.791Z,8.75
2023-03-30T19:26:15.423Z,8.57
2023-03-30T19:28:43.859Z,8.60
2023-03-30T19:31:15.976Z,8.46
2023-03-30T19:33:44.743Z,8.52
2023-03-30T19:36:13.145Z,8.58
2023-03-30T19:38:43.891Z,8.55
2023-03-30T19:41:13.933Z,8.49
2023-03-30T19:43:42.302Z,8.10
2023-03-30T19:46:10.889Z,8.53
2023-03-30T19:48:39.262Z,8.46
2023-03-30T19:51:07.884Z,8.51
2023-03-30T19:53:37.207Z,8.36
2023-03-30T19:56:11.084Z,8.20
2023-03-30T19:58:40.864Z,8.24
2023-03-30T20:01:10.385Z,8.20
2023-03-30T20:03:38.971Z,8.07
2023-03-30T20:06:11.606Z,7.97
2023-03-30T20:08:40.184Z,8.11
2023-03-30T20:11:09.574Z,7.94
2023-03-30T20:13:37.994Z,8.18
2023-03-30T20:16:07.912Z,8.09
2023-03-30T20:18:36.484Z,8.11
2023-03-30T20:21:05.840Z,8.19
2023-03-30T20:23:34.418Z,8.16
2023-03-30T20:26:04.507Z,8.13
2023-03-30T20:28:33.221Z,8.10
2023-03-30T20:31:01.957Z,7.88
2023-03-30T20:33:33.942Z,7.52
2023-03-30T20:36:02.416Z,7.72
2023-03-30T20:38:30.989Z,7.64
2023-03-30T20:41:02.856Z,7.72
2023-03-30T20:46:03.181Z,7.58
2023-03-30T20:48:39.153Z,7.70
2023-03-30T20:51:10.294Z,7.71
2023-03-30T20:53:39.315Z,7.74
2023-03-30T20:56:10.366Z,7.72
2023-03-30T20:58:40.087Z,7.54
2023-03-30T21:01:19.113Z,7.69
2023-03-30T21:03:50.082Z,7.80
2023-03-30T21:06:23.640Z,7.68
2023-03-30T21:08:52.419Z,7.61
2023-03-30T21:11:22.644Z,7.45
2023-03-30T21:13:51.598Z,7.40
2023-03-30T21:16:20.177Z,7.26
2023-03-30T21:18:50.679Z,7.34
2023-03-30T21:21:19.356Z,7.21
2023-03-30T21:23:47.912Z,7.38
2023-03-30T21:26:18.569Z,7.12
2023-03-30T21:28:47.272Z,7.12
2023-03-30T21:31:17.244Z,7.42
2023-03-30T21:33:45.936Z,7.55
2023-03-30T21:36:15.751Z,7.50
2023-03-30T21:38:44.094Z,7.52
2023-03-30T21:41:14.800Z,7.65
2023-03-30T21:43:45.619Z,7.50
2023-03-30T21:46:16.347Z,7.51
2023-03-30T21:48:46.741Z,7.40
2023-03-30T21:51:19.336Z,7.05
2023-03-30T21:53:51.077Z,6.79
2023-03-30T21:56:22.318Z,6.88
2023-03-30T21:58:51.265Z,7.14
2023-03-30T22:01:21.455Z,7.10
2023-03-30T22:03:49.967Z,7.16
2023-03-30T22:06:19.895Z,6.81
2023-03-30T22:08:48.606Z,7.23
2023-03-30T22:11:20.190Z,7.30
2023-03-30T22:13:49.753Z,7.28
2023-03-30T22:16:22.476Z,7.20
2023-03-30T22:18:51.874Z,7.47
2023-03-30T22:21:24.973Z,7.42
2023-03-30T22:23:54.717Z,7.54
2023-03-30T22:26:23.708Z,7.62
2023-03-30T22:28:52.053Z,7.47
2023-03-30T22:31:20.506Z,7.37
2023-03-30T22:33:49.379Z,7.70
2023-03-30T22:36:20.494Z,7.81
2023-03-30T22:38:52.107Z,7.68
2023-03-30T22:41:23.867Z,7.52
2023-03-30T22:43:53.701Z,7.11
2023-03-30T22:46:22.302Z,7.32
2023-03-30T22:48:51.841Z,7.04
2023-03-30T22:51:23.594Z,7.35
2023-03-30T22:53:53.903Z,7.42
2023-03-30T22:56:22.228Z,7.45
2023-03-30T22:58:50.560Z,7.45
2023-03-30T23:01:19.623Z,7.49
2023-03-30T23:03:48.694Z,7.49
2023-03-30T23:06:19.093Z,7.41
2023-03-30T23:08:48.712Z,7.71
2023-03-30T23:11:21.556Z,7.85
2023-03-30T23:13:52.311Z,7.93
2023-03-30T23:16:20.730Z,8.06
2023-03-30T23:18:49.804Z,8.00
2023-03-30T23:21:18.464Z,8.05
2023-03-30T23:23:46.838Z,8.24
2023-03-30T23:26:15.146Z,8.30
2023-03-30T23:28:45.391Z,8.29
2023-03-30T23:31:16.664Z,8.11
2023-03-30T23:33:45.448Z,8.27
2023-03-30T23:36:14.244Z,8.22
2023-03-30T23:38:42.863Z,8.04
2023-03-30T23:41:13.690Z,7.94
2023-03-30T23:43:42.153Z,8.05
2023-03-30T23:46:12.348Z,8.10
2023-03-30T23:48:42.081Z,7.79
2023-03-30T23:51:11.121Z,8.00
2023-03-30T23:53:40.264Z,8.20
2023-03-30T23:56:12.938Z,8.12
2023-03-30T23:58:42.412Z,7.94
